Time;durP1;ratioP1;P1;durP2;ratioP2;P2;SDS_P1;SDS_P2;PMS_P1;PMS_P2;Temp;Humidity;BMP_temperature;BMP_pressure;BME280_temperature;BME280_humidity;BME280_pressure;Samples;Min_cycle;Max_cycle;Signal;HPM_P1;HPM_P2
2021/09/08 00:00:30;;;;;;;4.37;2.80;;;;;;;17.38;65.87;99312.00;5132179;27;40017;-82
2021/09/08 00:02:59;;;;;;;4.77;2.90;;;;;;;17.49;66.14;99339.56;5133456;27;41670;-81
2021/09/08 00:05:28;;;;;;;3.57;2.60;;;;;;;17.46;65.94;99336.28;5132529;27;42822;-81
2021/09/08 00:07:55;;;;;;;3.70;2.83;;;;;;;17.43;66.00;99333.88;5115081;27;42548;-80
2021/09/08 00:10:23;;;;;;;5.87;2.57;;;;;;;17.40;66.18;99337.66;5132084;27;39911;-82
2021/09/08 00:12:50;;;;;;;4.07;2.90;;;;;;;17.36;65.95;99330.00;5114867;27;41275;-80
2021/09/08 00:15:18;;;;;;;3.60;2.70;;;;;;;17.31;66.09;99333.03;5131724;27;41862;-80
2021/09/08 00:17:46;;;;;;;4.10;3.20;;;;;;;17.29;66.34;99335.03;5132387;27;42505;-82
2021/09/08 00:20:15;;;;;;;3.60;2.43;;;;;;;17.13;66.77;99302.47;5130650;27;39984;-83
2021/09/08 00:22:45;;;;;;;3.67;2.80;;;;;;;17.22;66.80;99333.81;5114888;27;42001;-80
2021/09/08 00:25:14;;;;;;;3.93;2.37;;;;;;;17.19;66.68;99326.03;5132134;27;42963;-82
2021/09/08 00:27:41;;;;;;;3.97;3.17;;;;;;;17.14;66.82;99322.91;5131333;27;41678;-80
2021/09/08 00:30:13;;;;;;;5.70;3.13;;;;;;;17.14;66.62;99328.25;5132102;27;39182;-82
2021/09/08 00:32:41;;;;;;;4.70;2.53;;;;;;;17.03;67.15;99312.22;5114273;27;41010;-81
2021/09/08 00:35:10;;;;;;;5.47;3.10;;;;;;;17.00;67.19;99307.13;5129983;27;41907;-80
2021/09/08 00:37:39;;;;;;;3.80;2.53;;;;;;;17.07;67.08;99319.00;5132186;27;42466;-82
2021/09/08 00:40:10;;;;;;;4.77;2.33;;;;;;;16.99;67.35;99308.09;5131682;27;39657;-81
2021/09/08 00:42:43;;;;;;;4.10;2.40;;;;;;;17.00;67.14;99312.47;5113726;27;41097;-82
2021/09/08 00:45:13;;;;;;;5.23;3.27;;;;;;;17.01;67.75;99315.03;5131200;27;43922;-81
2021/09/08 00:47:41;;;;;;;5.17;3.13;;;;;;;17.01;67.69;99320.38;5114295;27;41372;-82
2021/09/08 00:50:10;;;;;;;4.77;2.87;;;;;;;16.87;67.76;99292.06;5130595;27;38856;-80
2021/09/08 00:52:39;;;;;;;5.73;3.57;;;;;;;16.93;67.77;99305.94;5131098;27;41628;-80
2021/09/08 00:55:12;;;;;;;4.30;2.73;;;;;;;16.92;67.52;99298.88;5130926;27;42927;-81
2021/09/08 00:57:41;;;;;;;3.30;2.97;;;;;;;17.00;67.39;99317.81;5114235;27;42174;-80
2021/09/08 01:00:10;;;;;;;4.13;2.47;;;;;;;16.88;67.54;99298.25;5113948;27;39895;-81
2021/09/08 01:02:40;;;;;;;3.23;2.87;;;;;;;16.98;67.72;99314.41;5114097;27;40735;-82
2021/09/08 01:05:10;;;;;;;5.27;3.63;;;;;;;16.97;67.84;99310.03;5131390;27;41910;-81
2021/09/08 01:07:40;;;;;;;4.47;3.53;;;;;;;16.95;67.87;99304.81;5130901;27;42647;-80
2021/09/08 01:10:10;;;;;;;4.67;2.97;;;;;;;16.85;67.74;99294.00;5114743;27;39286;-80
2021/09/08 01:12:39;;;;;;;5.53;2.77;;;;;;;16.93;67.57;99311.28;5131293;27;42673;-81
2021/09/08 01:15:07;;;;;;;6.07;3.47;;;;;;;16.71;67.68;99275.53;5132049;27;42826;-80
2021/09/08 01:17:36;;;;;;;4.10;2.57;;;;;;;16.88;67.60;99309.81;5113308;27;41676;-82
2021/09/08 01:20:04;;;;;;;4.77;3.40;;;;;;;16.78;67.91;99286.63;5130831;27;40406;-81
2021/09/08 01:22:34;;;;;;;4.20;2.53;;;;;;;16.86;67.77;99301.06;5113409;27;40819;-82
2021/09/08 01:25:03;;;;;;;4.57;2.73;;;;;;;16.85;67.70;99299.34;5113578;27;42795;-80
2021/09/08 01:27:31;;;;;;;6.77;2.77;;;;;;;16.80;68.07;99290.88;5130765;27;43195;-80
2021/09/08 01:29:58;;;;;;;6.27;3.77;;;;;;;16.80;67.80;99300.72;5130549;27;41051;-82
2021/09/08 01:32:33;;;;;;;4.10;3.03;;;;;;;16.72;68.10;99281.75;5130562;27;40518;-83
2021/09/08 01:35:00;;;;;;;4.00;2.40;;;;;;;16.79;68.15;99305.22;5129401;27;41855;-83
2021/09/08 01:37:28;;;;;;;4.17;2.60;;;;;;;16.75;67.81;99298.41;5130686;27;42127;-82
2021/09/08 01:39:55;;;;;;;5.53;2.63;;;;;;;16.62;68.01;99278.09;5131497;27;40796;-82
2021/09/08 01:42:24;;;;;;;4.17;3.17;;;;;;;16.69;68.13;99290.88;5113646;27;40638;-80
2021/09/08 01:44:52;;;;;;;5.27;3.40;;;;;;;16.66;68.30;99293.81;5130265;27;41975;-81
2021/09/08 01:47:19;;;;;;;4.00;2.70;;;;;;;16.65;68.37;99291.25;5112958;27;41253;-82
2021/09/08 01:49:47;;;;;;;6.17;3.73;;;;;;;16.60;68.03;99288.91;5113665;27;39842;-80
2021/09/08 01:52:14;;;;;;;6.03;3.53;;;;;;;16.57;68.71;99283.78;5112311;27;41027;-81
2021/09/08 01:54:42;;;;;;;6.80;3.73;;;;;;;16.54;69.08;99284.06;5130278;27;43104;-82
2021/09/08 01:57:09;;;;;;;4.83;2.70;;;;;;;16.50;68.77;99286.13;5112931;27;42517;-81
2021/09/08 01:59:38;;;;;;;4.47;3.23;;;;;;;16.48;68.96;99284.53;5130879;27;39026;-80
2021/09/08 02:02:06;;;;;;;6.00;3.50;;;;;;;16.43;69.47;99284.94;5131335;27;41940;-81
2021/09/08 02:04:33;;;;;;;4.60;2.60;;;;;;;16.39;69.11;99279.94;5130061;27;41945;-82
2021/09/08 02:07:01;;;;;;;5.07;3.10;;;;;;;16.35;69.99;99281.13;5131130;27;42493;-81
2021/09/08 02:09:28;;;;;;;5.67;3.50;;;;;;;16.31;70.31;99277.88;5130594;27;40221;-82
2021/09/08 02:11:56;;;;;;;5.13;2.93;;;;;;;16.28;69.98;99279.94;5129837;27;41153;-80
2021/09/08 02:14:23;;;;;;;4.27;2.83;;;;;;;16.22;69.97;99272.38;5130013;27;43725;-82
2021/09/08 02:16:52;;;;;;;4.77;3.00;;;;;;;16.10;69.75;99261.69;5129912;27;41109;-81
2021/09/08 02:19:20;;;;;;;5.10;3.60;;;;;;;16.17;70.10;99276.28;5112781;27;39992;-81
2021/09/08 02:21:48;;;;;;;5.03;2.90;;;;;;;16.04;70.06;99261.34;5131004;27;42142;-82
2021/09/08 02:24:15;;;;;;;5.17;3.20;;;;;;;16.07;70.47;99272.63;5112105;27;41762;-81
2021/09/08 02:26:43;;;;;;;3.73;3.17;;;;;;;16.07;70.41;99279.81;5113195;27;42520;-80
2021/09/08 02:29:11;;;;;;;4.23;2.77;;;;;;;16.05;70.15;99276.41;5130895;27;40764;-82
2021/09/08 02:31:38;;;;;;;6.43;3.63;;;;;;;16.03;70.29;99276.53;5113204;27;40807;-80
2021/09/08 02:34:07;;;;;;;4.77;2.60;;;;;;;15.99;70.40;99267.03;5129497;27;41527;-81
2021/09/08 02:36:35;;;;;;;4.30;2.83;;;;;;;15.89;70.00;99255.38;5111734;27;41148;-82
2021/09/08 02:39:02;;;;;;;3.77;2.80;;;;;;;15.97;69.84;99268.97;5129957;27;39847;-82
2021/09/08 02:41:30;;;;;;;3.93;2.77;;;;;;;15.96;69.92;99271.75;5129008;27;40791;-81
2021/09/08 02:43:57;;;;;;;3.63;2.77;;;;;;;15.86;70.16;99247.59;5129625;27;42464;-82
2021/09/08 02:46:25;;;;;;;4.63;2.90;;;;;;;15.90;70.06;99264.25;5130596;27;42364;-81
2021/09/08 02:48:52;;;;;;;4.60;2.70;;;;;;;15.86;69.88;99263.63;5128504;27;40063;-81
2021/09/08 02:51:21;;;;;;;5.57;3.27;;;;;;;15.75;70.08;99242.25;5111079;27;40506;-79
2021/09/08 02:53:49;;;;;;;3.40;2.50;;;;;;;15.77;70.05;99251.00;5112201;27;42071;-80
2021/09/08 02:56:16;;;;;;;5.60;3.37;;;;;;;15.80;70.14;99258.78;5129210;27;42634;-80
2021/09/08 02:58:43;;;;;;;4.03;2.40;;;;;;;15.69;70.21;99248.06;5129598;27;40233;-81
2021/09/08 03:01:11;;;;;;;5.20;3.13;;;;;;;15.76;70.12;99257.28;5130283;27;41842;-82
2021/09/08 03:03:39;;;;;;;3.73;2.70;;;;;;;15.74;69.92;99267.25;5129868;27;41973;-80
2021/09/08 03:06:06;;;;;;;5.87;2.73;;;;;;;15.71;69.95;99256.78;5112753;27;41216;-80
2021/09/08 03:08:35;;;;;;;3.50;2.53;;;;;;;15.65;69.72;99254.59;5112418;27;40071;-80
2021/09/08 03:11:02;;;;;;;4.90;2.23;;;;;;;15.65;69.80;99263.47;5130663;27;41713;-80
2021/09/08 03:13:30;;;;;;;4.20;2.70;;;;;;;15.62;69.60;99253.00;5128599;27;43168;-80
2021/09/08 03:15:57;;;;;;;3.37;2.50;;;;;;;15.57;69.45;99254.34;5129872;27;42083;-80
2021/09/08 03:18:25;;;;;;;3.63;2.33;;;;;;;15.54;69.28;99257.22;5110682;27;39076;-80
2021/09/08 03:20:52;;;;;;;3.37;1.90;;;;;;;15.50;68.84;99253.06;5111954;27;42292;-81
2021/09/08 03:23:20;;;;;;;4.87;2.87;;;;;;;15.36;68.72;99241.63;5128485;27;43579;-80
2021/09/08 03:25:49;;;;;;;4.50;1.97;;;;;;;15.42;68.77;99254.53;5129337;27;42359;-82
2021/09/08 03:28:16;;;;;;;2.97;2.40;;;;;;;15.38;68.67;99261.03;5127790;27;40317;-81
2021/09/08 03:30:44;;;;;;;3.47;1.93;;;;;;;15.33;68.92;99252.53;5110573;27;41780;-81
2021/09/08 03:33:11;;;;;;;2.83;1.87;;;;;;;15.30;68.62;99252.78;5128640;27;43038;-82
2021/09/08 03:35:39;;;;;;;3.97;2.23;;;;;;;15.26;68.69;99253.97;5111259;27;41478;-81
2021/09/08 03:38:06;;;;;;;3.57;2.13;;;;;;;15.22;68.77;99252.47;5112283;27;39147;-83
2021/09/08 03:40:34;;;;;;;2.40;2.00;;;;;;;15.18;69.17;99253.69;5128234;27;42789;-81
2021/09/08 03:43:03;;;;;;;4.90;2.73;;;;;;;15.05;69.21;99235.09;5127704;27;42090;-80
2021/09/08 03:45:30;;;;;;;4.73;3.13;;;;;;;15.03;69.04;99234.34;5128484;27;42319;-81
2021/09/08 03:47:58;;;;;;;3.20;1.90;;;;;;;15.11;69.29;99257.78;5130183;27;40263;-82
2021/09/08 03:50:26;;;;;;;2.73;2.03;;;;;;;15.00;69.18;99244.38;5128359;27;41962;-81
2021/09/08 03:52:54;;;;;;;3.80;2.57;;;;;;;15.04;69.40;99252.06;5129519;27;42997;-82
2021/09/08 03:55:22;;;;;;;3.93;3.07;;;;;;;15.01;69.52;99251.44;5127968;27;42738;-80
2021/09/08 03:57:49;;;;;;;3.83;1.83;;;;;;;14.88;69.42;99239.97;5111405;27;38963;-80
2021/09/08 04:00:19;;;;;;;2.97;2.17;;;;;;;14.96;68.98;99259.75;5131506;27;41609;-82
2021/09/08 04:02:47;;;;;;;3.73;1.87;;;;;;;14.81;69.16;99230.72;5133488;27;43066;-80
2021/09/08 04:05:15;;;;;;;2.33;2.07;;;;;;;14.89;69.02;99252.34;5133069;27;43219;-83
2021/09/08 04:07:42;;;;;;;3.53;2.00;;;;;;;14.88;68.95;99247.97;5114955;27;39829;-81
2021/09/08 04:10:11;;;;;;;5.30;2.47;;;;;;;14.84;68.98;99244.66;5131405;27;42769;-80
2021/09/08 04:12:39;;;;;;;2.97;2.00;;;;;;;14.76;69.31;99235.53;5132332;27;41987;-81
2021/09/08 04:15:07;;;;;;;4.37;2.50;;;;;;;14.78;69.18;99238.94;5131809;27;41685;-80
2021/09/08 04:17:36;;;;;;;5.07;2.60;;;;;;;14.76;69.61;99243.53;5131793;27;40931;-80
2021/09/08 04:20:05;;;;;;;3.50;2.33;;;;;;;14.72;69.52;99242.91;5132279;27;42782;-81
2021/09/08 04:22:33;;;;;;;3.57;2.37;;;;;;;14.69;69.36;99236.00;5132080;27;41963;-80
2021/09/08 04:25:00;;;;;;;3.67;2.20;;;;;;;14.67;69.82;99237.94;5131562;27;41371;-80
2021/09/08 04:27:28;;;;;;;4.57;2.80;;;;;;;14.64;69.99;99230.16;5111340;28;38993;-81
2021/09/08 04:29:56;;;;;;;3.37;2.07;;;;;;;14.62;69.93;99229.41;5110542;28;42021;-80
2021/09/08 04:32:24;;;;;;;3.83;2.13;;;;;;;14.62;69.81;99231.22;5110441;28;41811;-80
2021/09/08 04:34:53;;;;;;;4.17;2.70;;;;;;;14.59;69.95;99229.63;5110654;28;41345;-80
2021/09/08 04:37:20;;;;;;;3.83;2.37;;;;;;;14.59;70.15;99229.63;5111201;28;40181;-80
2021/09/08 04:39:48;;;;;;;4.73;2.33;;;;;;;14.57;69.91;99231.56;5112111;28;42796;-83
2021/09/08 04:42:16;;;;;;;6.27;2.80;;;;;;;14.58;70.12;99229.75;5111388;28;43775;-82
2021/09/08 04:44:43;;;;;;;3.03;2.10;;;;;;;14.56;69.99;99229.88;5128560;27;42460;-82
2021/09/08 04:47:11;;;;;;;4.00;2.60;;;;;;;14.56;69.94;99232.53;5093582;28;39203;-80
2021/09/08 04:49:39;;;;;;;3.80;2.50;;;;;;;14.44;70.08;99212.09;5110654;28;40734;-83
2021/09/08 04:52:08;;;;;;;5.07;2.70;;;;;;;14.58;70.23;99232.41;5110918;28;43863;-82
2021/09/08 04:54:37;;;;;;;4.70;3.17;;;;;;;14.59;70.41;99234.94;5093469;28;42519;-82
2021/09/08 04:57:05;;;;;;;3.13;2.47;;;;;;;14.61;70.72;99227.69;5093404;28;39225;-80
2021/09/08 04:59:34;;;;;;;5.33;3.13;;;;;;;14.55;70.41;99220.16;5111692;28;43181;-81
2021/09/08 05:02:01;;;;;;;4.83;2.80;;;;;;;14.67;70.37;99231.75;5093815;28;41887;-80
2021/09/08 05:04:29;;;;;;;4.60;2.33;;;;;;;14.69;70.49;99236.00;5103994;27;42579;-82
2021/09/08 05:06:57;;;;;;;5.40;3.03;;;;;;;14.72;70.54;99234.91;5114718;27;40240;-81
2021/09/08 05:09:26;;;;;;;4.60;3.17;;;;;;;14.73;70.50;99233.94;5132196;27;42818;-81
2021/09/08 05:11:54;;;;;;;3.90;2.67;;;;;;;14.67;70.33;99221.09;5113502;27;41872;-81
2021/09/08 05:14:21;;;;;;;4.27;2.90;;;;;;;14.70;70.42;99224.38;5113262;27;42264;-80
2021/09/08 05:16:49;;;;;;;4.33;3.53;;;;;;;14.68;70.64;99222.78;5144186;27;40232;-80
2021/09/08 05:19:17;;;;;;;4.10;2.67;;;;;;;14.71;70.62;99223.38;5129883;27;40631;-79
2021/09/08 05:21:44;;;;;;;4.63;3.07;;;;;;;14.86;70.95;99241.88;5147002;27;41819;-78
2021/09/08 05:24:12;;;;;;;5.53;2.97;;;;;;;14.88;71.00;99234.63;5146820;27;42562;-81
2021/09/08 05:26:41;;;;;;;5.67;3.60;;;;;;;14.90;71.17;99233.56;5129347;27;38916;-79
2021/09/08 05:29:09;;;;;;;5.23;3.10;;;;;;;14.90;71.01;99222.03;5145811;27;41797;-79
2021/09/08 05:31:37;;;;;;;5.77;3.00;;;;;;;14.98;70.84;99235.66;5135061;27;43480;-79
2021/09/08 05:34:05;;;;;;;4.80;3.13;;;;;;;14.97;71.05;99223.28;5114521;27;41199;-80
2021/09/08 05:36:32;;;;;;;4.57;2.87;;;;;;;15.04;70.73;99237.88;5114665;27;38947;-82
2021/09/08 05:39:00;;;;;;;5.20;2.90;;;;;;;15.00;71.06;99218.56;5114583;27;40805;-81
2021/09/08 05:41:28;;;;;;;4.37;2.67;;;;;;;15.03;70.97;99217.50;5132194;27;41677;-79
2021/09/08 05:43:58;;;;;;;3.37;2.40;;;;;;;15.20;70.48;99225.09;5131885;27;43029;-79
2021/09/08 05:46:26;;;;;;;4.13;2.37;;;;;;;15.29;70.05;99231.53;5113268;27;39105;-82
2021/09/08 05:48:53;;;;;;;5.13;2.93;;;;;;;15.37;70.16;99234.47;5131647;27;41906;-81
2021/09/08 05:51:21;;;;;;;5.13;3.53;;;;;;;15.46;69.75;99233.75;5129736;27;43175;-80
2021/09/08 05:53:49;;;;;;;5.27;3.00;;;;;;;15.48;69.60;99212.28;5131508;27;43262;-81
2021/09/08 05:56:17;;;;;;;3.40;2.30;;;;;;;15.70;69.57;99239.09;5130940;27;39774;-80
2021/09/08 05:58:44;;;;;;;5.33;2.90;;;;;;;15.69;69.56;99222.22;5113713;27;41980;-82
2021/09/08 06:01:14;;;;;;;4.67;2.97;;;;;;;15.88;69.15;99236.78;5111353;28;43646;-81
2021/09/08 06:03:42;;;;;;;4.73;3.13;;;;;;;15.98;68.94;99243.97;5132664;27;42498;-81
2021/09/08 06:06:09;;;;;;;4.87;2.90;;;;;;;15.88;68.61;99218.09;5126564;27;39947;-81
2021/09/08 06:08:37;;;;;;;4.67;3.07;;;;;;;16.16;68.80;99237.19;5130924;27;41981;-80
2021/09/08 06:11:04;;;;;;;3.67;2.70;;;;;;;16.28;68.33;99243.38;5131332;27;43002;-80
2021/09/08 06:13:32;;;;;;;6.27;4.00;;;;;;;16.38;68.66;99246.16;5130193;27;43018;-80
2021/09/08 06:16:00;;;;;;;4.43;2.80;;;;;;;16.23;68.25;99201.94;5112875;27;40352;-81
2021/09/08 06:18:29;;;;;;;4.97;2.80;;;;;;;16.55;68.00;99248.34;5112555;27;41682;-80
2021/09/08 06:20:58;;;;;;;4.23;2.50;;;;;;;16.56;68.07;99228.66;5113585;27;42787;-81
2021/09/08 06:23:25;;;;;;;4.17;3.27;;;;;;;16.75;68.37;99241.38;5111395;27;41373;-82
2021/09/08 06:25:53;;;;;;;4.63;2.83;;;;;;;16.86;67.87;99239.53;5113251;27;39025;-81
2021/09/08 06:28:21;;;;;;;4.87;2.93;;;;;;;17.01;67.82;99245.44;5130682;27;42698;-82
2021/09/08 06:30:48;;;;;;;4.27;2.93;;;;;;;17.13;67.59;99240.91;5112759;27;41886;-81
2021/09/08 06:33:16;;;;;;;5.50;3.20;;;;;;;17.28;67.11;99239.63;5127430;27;41297;-82
2021/09/08 06:35:46;;;;;;;3.90;2.33;;;;;;;17.40;66.76;99235.06;5129211;27;40207;-81
2021/09/08 06:38:13;;;;;;;4.53;3.17;;;;;;;17.54;66.29;99243.63;5113050;27;41771;-83
2021/09/08 06:40:41;;;;;;;5.10;3.50;;;;;;;17.60;66.33;99243.09;5111388;27;42781;-83
2021/09/08 06:43:09;;;;;;;4.57;3.00;;;;;;;17.66;66.20;99224.84;5110401;27;41342;-84
2021/09/08 06:45:37;;;;;;;6.53;3.53;;;;;;;17.80;65.79;99240.59;5106838;27;40801;-83
2021/09/08 06:48:05;;;;;;;7.10;3.43;;;;;;;17.85;65.61;99235.66;5128309;27;40878;-85
2021/09/08 06:50:32;;;;;;;4.20;2.77;;;;;;;17.98;65.36;99230.94;5129017;27;43047;-86
2021/09/08 06:53:02;;;;;;;6.83;3.67;;;;;;;18.01;65.61;99219.13;5106941;28;41534;-86
2021/09/08 06:55:30;;;;;;;5.40;3.80;;;;;;;18.25;65.61;99236.56;5089918;28;39058;-82
2021/09/08 06:57:57;;;;;;;5.63;3.90;;;;;;;18.46;65.16;99236.50;5115641;27;42792;-83
2021/09/08 07:00:25;;;;;;;4.27;3.23;;;;;;;18.69;64.61;99223.75;5104986;27;41839;-81
2021/09/08 07:02:53;;;;;;;7.47;3.70;;;;;;;19.00;64.43;99230.72;5104683;28;42962;-84
2021/09/08 07:05:21;;;;;;;6.83;4.07;;;;;;;19.25;64.21;99226.63;5093676;27;39529;-81
2021/09/08 07:07:49;;;;;;;5.10;3.80;;;;;;;19.85;62.55;99226.44;5112059;27;41955;-79
2021/09/08 07:10:19;;;;;;;5.33;3.70;;;;;;;20.85;60.47;99238.19;5139751;27;42561;-79
2021/09/08 07:12:47;;;;;;;5.70;3.47;;;;;;;21.69;58.28;99249.44;5146342;27;41984;-77
2021/09/08 07:15:14;;;;;;;6.67;4.20;;;;;;;22.27;56.92;99253.38;5141321;27;39033;-80
2021/09/08 07:17:42;;;;;;;10.10;4.70;;;;;;;22.60;54.86;99238.22;5132702;27;41654;-80
2021/09/08 07:20:10;;;;;;;5.10;3.83;;;;;;;22.99;53.66;99261.00;5118043;27;41783;-80
2021/09/08 07:22:38;;;;;;;4.67;3.80;;;;;;;23.24;54.38;99249.19;5134860;27;42926;-79
2021/09/08 07:25:06;;;;;;;6.43;4.20;;;;;;;23.32;53.27;99247.53;5126114;27;40390;-82
2021/09/08 07:27:35;;;;;;;4.90;3.97;;;;;;;23.44;53.21;99252.44;5124500;27;41175;-82
2021/09/08 07:30:04;;;;;;;5.47;3.80;;;;;;;23.52;53.47;99243.50;5126409;27;42941;-81
2021/09/08 07:32:31;;;;;;;6.47;3.60;;;;;;;23.83;52.00;99257.19;5109471;27;42568;-83
2021/09/08 07:34:59;;;;;;;5.10;3.43;;;;;;;23.94;52.42;99257.69;5146892;27;41314;-83
2021/09/08 07:37:28;;;;;;;4.73;3.40;;;;;;;24.06;52.31;99255.47;5130166;27;42817;-83
2021/09/08 07:39:55;;;;;;;6.43;4.70;;;;;;;24.14;51.53;99252.75;5109659;28;42853;-83
2021/09/08 07:42:23;;;;;;;6.90;3.83;;;;;;;24.39;51.24;99253.56;5093358;28;42875;-85
2021/09/08 07:44:52;;;;;;;5.13;3.50;;;;;;;24.79;50.62;99240.88;5111068;28;40024;-84
2021/09/08 07:47:20;;;;;;;4.30;3.33;;;;;;;25.14;50.39;99244.94;5112084;28;41643;-83
2021/09/08 07:49:48;;;;;;;5.17;4.27;;;;;;;25.51;49.72;99257.72;5094290;28;41798;-84
2021/09/08 07:52:15;;;;;;;4.47;3.30;;;;;;;25.94;49.02;99253.47;5110891;28;42551;-83
2021/09/08 07:54:43;;;;;;;4.93;4.10;;;;;;;26.49;46.08;99277.53;5098844;27;39837;-83
2021/09/08 07:57:10;;;;;;;5.60;4.20;;;;;;;27.09;46.00;99282.72;5140013;27;41886;-82
2021/09/08 07:59:38;;;;;;;6.33;4.07;;;;;;;27.51;44.66;99284.66;5131673;27;41844;-85
2021/09/08 08:02:07;;;;;;;6.63;4.57;;;;;;;28.20;43.75;99276.72;5112144;27;42601;-80
2021/09/08 08:04:35;;;;;;;4.50;3.50;;;;;;;28.59;42.71;99291.66;5131329;27;39854;-85
2021/09/08 08:07:03;;;;;;;5.00;3.80;;;;;;;28.78;41.54;99280.06;5131614;27;41858;-84
2021/09/08 08:09:31;;;;;;;4.90;3.63;;;;;;;28.53;41.51;99273.38;5113910;27;42924;-86
2021/09/08 08:11:59;;;;;;;5.03;3.87;;;;;;;28.37;41.46;99279.16;5120728;27;42312;-86
2021/09/08 08:14:26;;;;;;;5.47;4.07;;;;;;;28.05;42.05;99265.09;5109656;28;40280;-85
2021/09/08 08:16:54;;;;;;;5.73;4.00;;;;;;;28.05;41.64;99261.50;5111126;28;41335;-86
2021/09/08 08:19:24;;;;;;;5.40;3.63;;;;;;;28.13;43.21;99256.75;5109843;27;41635;-83
2021/09/08 08:21:51;;;;;;;6.33;4.30;;;;;;;28.28;42.95;99255.84;5138202;27;42402;-85
2021/09/08 08:24:19;;;;;;;4.97;4.07;;;;;;;28.21;42.31;99250.34;5112258;27;39786;-84
2021/09/08 08:26:46;;;;;;;5.90;4.33;;;;;;;28.68;41.11;99271.38;5131626;27;42097;-83
2021/09/08 08:29:14;;;;;;;3.87;3.43;;;;;;;29.47;40.48;99274.44;5119850;27;42078;-86
2021/09/08 08:31:42;;;;;;;5.97;4.00;;;;;;;30.00;38.99;99286.28;5125334;27;42348;-85
2021/09/08 08:34:10;;;;;;;7.77;5.67;;;;;;;30.06;38.30;99268.19;5128593;27;39265;-85
2021/09/08 08:36:40;;;;;;;5.43;4.63;;;;;;;30.08;37.67;99278.91;5135425;27;41565;-90
2021/09/08 08:39:08;;;;;;;5.73;4.10;;;;;;;30.30;38.16;99270.28;5145299;27;43330;-85
2021/09/08 08:41:35;;;;;;;4.30;3.57;;;;;;;30.91;37.26;99271.84;5111824;27;41691;-84
2021/09/08 08:44:04;;;;;;;7.27;4.07;;;;;;;31.45;36.43;99282.31;5113325;27;39027;-84
2021/09/08 08:46:32;;;;;;;6.27;4.47;;;;;;;31.92;35.47;99291.06;5129904;27;41457;-85
2021/09/08 08:49:00;;;;;;;4.67;3.97;;;;;;;32.25;34.36;99291.66;5128428;27;41999;-80
2021/09/08 08:51:28;;;;;;;5.13;4.17;;;;;;;32.47;34.28;99265.50;5130158;27;42409;-82
2021/09/08 08:53:57;;;;;;;5.37;4.47;;;;;;;32.96;32.79;99307.59;5113358;27;39264;-84
2021/09/08 08:56:25;;;;;;;4.37;3.97;;;;;;;32.90;32.33;99288.44;5143800;27;40757;-83
2021/09/08 08:58:52;;;;;;;4.43;4.03;;;;;;;32.85;33.38;99283.69;5109266;28;43926;-81
2021/09/08 09:01:21;;;;;;;4.37;3.77;;;;;;;33.28;32.19;99293.69;5108330;28;41410;-85
2021/09/08 09:04:00;;;;;;;3.70;3.40;;;;;;;33.67;31.48;99295.88;5109923;28;38716;-81
2021/09/08 09:06:29;;;;;;;5.23;4.00;;;;;;;34.15;30.70;99300.41;5113553;27;41637;-83
2021/09/08 09:09:06;;;;;;;4.10;3.70;;;;;;;34.88;29.20;99308.22;5130114;27;43001;-82
2021/09/08 09:11:36;;;;;;;4.20;3.80;;;;;;;35.68;28.89;99304.63;5122310;27;42692;-84
2021/09/08 09:14:06;;;;;;;4.05;3.65;;;;;;;35.50;29.04;99300.16;5144471;27;40176;-87
2021/09/08 09:16:37;;;;;;;3.40;3.10;;;;;;;35.05;29.14;99302.81;5130863;27;42899;-83
2021/09/08 09:19:05;;;;;;;4.40;3.63;;;;;;;34.56;29.74;99292.09;5111563;27;41758;-82
2021/09/08 09:21:33;;;;;;;3.83;3.43;;;;;;;33.75;30.70;99270.00;5129759;27;43367;-82
2021/09/08 09:24:05;;;;;;;5.87;4.40;;;;;;;33.18;31.01;99278.59;5125393;27;38974;-80
2021/09/08 09:26:35;;;;;;;5.07;4.47;;;;;;;32.50;32.17;99249.66;5132127;27;40883;-80
2021/09/08 09:29:09;;;;;;;5.27;4.73;;;;;;;32.08;32.14;99225.59;5151621;27;42898;-85
2021/09/08 09:31:50;;;;;;;5.13;3.60;;;;;;;31.98;33.34;99249.09;5128231;27;41236;-77
2021/09/08 09:34:18;;;;;;;4.43;4.00;;;;;;;31.66;33.02;99254.59;5146469;27;39989;-89
2021/09/08 09:36:46;;;;;;;4.80;4.30;;;;;;;31.40;34.01;99230.94;5112790;27;41059;-86
2021/09/08 09:39:16;;;;;;;3.70;3.20;;;;;;;31.34;34.23;99241.94;5143832;27;42577;-83
2021/09/08 09:41:44;;;;;;;4.37;3.70;;;;;;;30.94;35.01;99220.25;5122394;27;41593;-86
2021/09/08 09:44:14;;;;;;;4.17;3.70;;;;;;;30.67;35.07;99232.34;5150785;27;38897;-84
2021/09/08 09:46:44;;;;;;;4.53;3.87;;;;;;;30.33;35.34;99226.13;5151436;27;41804;-87
2021/09/08 09:49:13;;;;;;;4.57;3.90;;;;;;;29.83;36.31;99183.09;5125403;27;41939;-88
2021/09/08 09:51:41;;;;;;;4.27;3.57;;;;;;;29.67;36.17;99201.59;5107835;28;41658;-87
2021/09/08 09:54:08;;;;;;;4.07;3.53;;;;;;;29.43;36.81;99199.47;5091734;28;39316;-81
2021/09/08 09:56:38;;;;;;;4.73;3.77;;;;;;;29.28;37.83;99193.38;5128648;27;41882;-88
2021/09/08 09:59:06;;;;;;;4.00;3.53;;;;;;;29.11;38.29;99175.69;5127596;27;43001;-86
2021/09/08 10:01:34;;;;;;;5.03;3.73;;;;;;;28.97;38.46;99141.25;5129763;27;42336;-85
2021/09/08 10:04:02;;;;;;;4.07;3.67;;;;;;;29.12;37.90;99178.22;5113051;27;40150;-88
2021/09/08 10:06:31;;;;;;;5.40;4.17;;;;;;;28.92;38.11;99167.28;5128555;27;41614;-89
2021/09/08 10:08:59;;;;;;;3.57;3.27;;;;;;;28.56;39.29;99112.22;5127755;27;41988;-85
2021/09/08 10:11:33;;;;;;;5.03;4.03;;;;;;;28.76;40.32;99139.50;5138826;27;42203;-88
2021/09/08 10:14:05;;;;;;;4.07;3.33;;;;;;;28.89;38.82;99162.22;5119077;27;40443;-83
2021/09/08 10:16:34;;;;;;;4.47;3.20;;;;;;;29.14;38.14;99148.00;5127493;27;40730;-82
2021/09/08 10:19:04;;;;;;;5.20;3.20;;;;;;;29.73;36.88;99148.03;5116910;27;42072;-88
2021/09/08 10:21:31;;;;;;;5.03;3.93;;;;;;;29.93;37.01;99150.72;5144982;27;41169;-85
2021/09/08 10:24:03;;;;;;;3.33;3.03;;;;;;;30.11;36.31;99161.88;5129523;27;39085;-86
2021/09/08 10:26:34;;;;;;;5.50;3.90;;;;;;;30.12;36.93;99157.25;5127299;27;41956;-84
2021/09/08 10:29:07;;;;;;;7.67;5.07;;;;;;;30.39;35.96;99141.59;5116808;27;42919;-86
2021/09/08 10:31:41;;;;;;;8.73;6.23;;;;;;;31.13;35.02;99154.72;5122272;27;42448;-85
2021/09/08 10:34:11;;;;;;;3.87;3.30;;;;;;;31.39;34.69;99138.97;5127493;27;40642;-82
2021/09/08 10:36:40;;;;;;;3.93;3.63;;;;;;;31.82;33.39;99143.66;5147920;27;20232;-82
2021/09/08 10:39:10;;;;;;;4.33;3.50;;;;;;;32.14;33.92;99147.13;5117379;27;42372;-81
2021/09/08 10:41:41;;;;;;;3.93;3.63;;;;;;;32.55;33.13;99148.31;5144235;27;42454;-81
2021/09/08 10:44:12;;;;;;;3.70;3.40;;;;;;;33.35;31.62;99154.44;5126998;27;40262;-82
2021/09/08 10:46:57;;;;;;;5.10;3.53;;;;;;;34.18;31.13;99154.22;5111952;27;41702;-82
2021/09/08 10:49:54;;;;;;;3.63;3.33;;;;;;;34.85;29.62;99160.09;5109809;27;43425;-80
2021/09/08 10:52:47;;;;;;;3.47;3.10;;;;;;;35.00;29.35;99152.13;5086655;28;41133;-81
2021/09/08 10:55:22;;;;;;;4.90;2.97;;;;;;;34.79;29.61;99161.91;5117636;27;40252;-79
2021/09/08 10:58:08;;;;;;;4.07;3.67;;;;;;;34.37;30.34;99153.03;5136663;27;42306;-82
2021/09/08 11:00:40;;;;;;;3.20;2.90;;;;;;;34.27;30.74;99141.81;5124263;27;41863;-83
2021/09/08 11:03:24;;;;;;;4.17;3.80;;;;;;;34.65;29.88;99134.88;5130183;27;43199;-84
2021/09/08 11:05:55;;;;;;;4.63;4.13;;;;;;;35.08;30.72;99121.44;5141129;27;40170;-81
2021/09/08 11:08:25;;;;;;;4.03;3.73;;;;;;;35.51;29.93;99125.50;5131125;27;42434;-82
2021/09/08 11:11:06;;;;;;;3.87;3.13;;;;;;;35.99;27.64;99138.66;5115921;27;42829;-81
2021/09/08 11:13:34;;;;;;;3.13;2.87;;;;;;;36.58;27.41;99137.00;5118131;27;42869;-85
2021/09/08 11:16:15;;;;;;;3.35;3.05;;;;;;;36.73;26.22;99118.97;5115417;27;38993;-89
2021/09/08 11:18:43;;;;;;;3.63;3.33;;;;;;;36.62;27.59;99115.22;5119450;27;42315;-87
2021/09/08 11:21:10;;;;;;;3.70;3.40;;;;;;;36.90;26.94;99123.31;5115839;27;43232;-88
2021/09/08 11:23:38;;;;;;;3.70;3.27;;;;;;;37.40;25.57;99111.09;5116776;27;41552;-86
2021/09/08 11:26:07;;;;;;;3.70;3.40;;;;;;;38.23;24.32;99130.75;5135866;27;40808;-89
2021/09/08 11:28:36;;;;;;;3.42;3.13;;;;;;;39.20;23.93;99135.53;5135262;27;42463;-83
2021/09/08 11:31:14;;;;;;;3.10;2.80;;;;;;;39.53;23.35;99144.47;5133303;27;43059;-81
2021/09/08 11:33:42;;;;;;;2.90;2.67;;;;;;;39.44;22.47;99147.78;5135654;27;41316;-86
2021/09/08 11:36:15;;;;;;;2.90;2.65;;;;;;;39.94;22.18;99148.06;5132728;27;39109;-85
2021/09/08 11:38:48;;;;;;;3.38;3.08;;;;;;;41.31;20.77;99153.88;5134610;27;41826;-85
2021/09/08 11:41:18;;;;;;;3.45;3.15;;;;;;;42.35;19.16;99159.88;5119502;27;41981;-83